Akron, NY (14001)

7:46 AM EST on March 02, 2015 (GMT -0500)
Utley Road | Change Station
CLOSE
Current Station
Personal Weather Station
Location: Akron, NY
Elevation: 646 ft
Nearby Weather Stations

Elev 646 ft 43.02 °N, 78.57 °W | Updated 6 seconds ago

Snow
Snow
20.8 °F
Feels Like 7 °F
N
14.5
Wind Variable Wind from SW
Gusts 17.4 mph

Today
High -- | Low -- °F
--% Chance of Precip.
Yesterday
High -- | Low -- °F
Precip. -- in
6:48 AM 6:04 PM
Waxing Gibbous, 91% visible
Pressure 30.22 in
Visibility 3.0 miles
Clouds Few 900 ft
Overcast 3100 ft
Windchill 7 °F
Dew Point 10 °F
Humidity 63%
Rainfall 0.00 in
Snow Depth Not available.
UV 0 out of 12
Pollen .40 out of 12
Air Quality Not available.
Flu Activity Not available.
METAR KBUF 021154Z 24012KT 3SM -SN FEW009 OVC031 M07/M09 A3019 RMK AO2 SLP234 P0000 60002 70013 4/023 T10671094 11061 21072 53017

More Conditions Fewer Conditions

Pressure 30.22 in
Visibility 3.0 miles
Clouds Few 900 ft
Overcast 3100 ft
Windchill 7 °F
Dew Point 10 °F
Humidity 63%
Rainfall 0.00 in
Snow Depth Not available.
UV 0 out of 12
Pollen .40 out of 12
Air Quality Not available.
Flu Activity Not available.
METAR KBUF 021154Z 24012KT 3SM -SN FEW009 OVC031 M07/M09 A3019 RMK AO2 SLP234 P0000 60002 70013 4/023 T10671094 11061 21072 53017

More Conditions Fewer Conditions

10-Day Weather Forecast

Almanac

Astronomy

Mar. 02, 2015 Rise Set
Actual Time
Civil Twilight
Nautical Twilight
Astronomical Twilight
Moon
Length of Visible Light
Length of Day
Tomorrow will be .
, % of the Moon is Illuminated

Today's Extremes

State Highs State Lows

Community

WunderPhotos

Upload Photos

1,801,772 photos uploaded!

WunderBlogs® & News

Nearby

Air Quality

  Air Quality AQ Index Pollutant
Not available.

Snow Depth

Station Depth Elevation

Earthquake Activity

City Distance Mag. Time & Date
Minimum magnitude displayed is 2.5.

Coastal Water Temperatures

Place Temperature

Nearby Weather Stations